Time,TemperatureF,DewpointF,PressureIn,WindDirection,WindDirectionDegrees,WindSpeedMPH,WindSpeedGustMPH,Humidity,HourlyPrecipIn,Conditions,Clouds,dailyrainin,SoftwareType,DateUTC
2013-02-26 00:00:00,27.9,27.9,30.24,WSW,246,0.0,0.0,100,0.00,OVC,,0.17,WeatherDisplay:10.37,2013-02-26 05:00:00,
2013-02-26 00:05:00,27.9,27.9,30.25,WSW,246,0.0,0.0,100,0.00,RA,,0.00,WeatherDisplay:10.37,2013-02-26 05:05:00,
2013-02-26 00:10:00,27.9,27.9,30.25,WSW,246,0.0,0.0,100,0.00,BKN,,0.00,WeatherDisplay:10.37,2013-02-26 05:10:00,
2013-02-26 00:15:00,27.8,27.8,30.25,WSW,246,0.0,0.0,100,0.00,BKN,,0.00,WeatherDisplay:10.37,2013-02-26 05:15:00,
2013-02-26 00:20:00,27.8,27.8,30.25,WSW,246,0.0,0.0,100,0.00,BKN,,0.00,WeatherDisplay:10.37,2013-02-26 05:20:00,
2013-02-26 00:25:00,27.7,27.7,30.25,WSW,246,0.0,0.0,100,0.00,BKN,,0.00,WeatherDisplay:10.37,2013-02-26 05:25:00,
2013-02-26 00:30:00,27.7,27.7,30.25,WSW,246,0.0,0.0,100,0.00,BKN,,0.00,WeatherDisplay:10.37,2013-02-26 05:30:00,
2013-02-26 00:35:00,27.5,27.5,30.26,WSW,246,0.0,0.0,100,0.00,BKN,,0.00,WeatherDisplay:10.37,2013-02-26 05:35:00,
2013-02-26 00:40:00,27.4,27.4,30.26,WSW,246,0.0,0.0,100,0.00,BKN,,0.00,WeatherDisplay:10.37,2013-02-26 05:40:00,
2013-02-26 00:45:00,27.4,27.4,30.26,WSW,246,0.0,0.0,100,0.00,BKN,,0.00,WeatherDisplay:10.37,2013-02-26 05:45:00,
2013-02-26 00:50:00,27.5,27.5,30.26,WSW,246,0.0,0.0,100,0.00,BKN,,0.00,WeatherDisplay:10.37,2013-02-26 05:50:00,
2013-02-26 00:55:00,27.5,27.5,30.26,WSW,246,0.0,0.0,100,0.00,BKN,,0.00,WeatherDisplay:10.37,2013-02-26 05:55:00,
2013-02-26 01:00:00,27.5,27.5,30.26,WSW,246,0.0,0.0,100,0.00,BKN,,0.00,WeatherDisplay:10.37,2013-02-26 06:00:00,
2013-02-26 01:05:00,27.5,27.5,30.26,WSW,246,0.0,0.0,100,0.00,FEW,,0.00,WeatherDisplay:10.37,2013-02-26 06:05:00,
2013-02-26 01:10:00,27.5,27.5,30.26,WSW,246,0.0,0.0,100,0.00,FEW,,0.00,WeatherDisplay:10.37,2013-02-26 06:10:00,
2013-02-26 01:15:00,27.5,27.5,30.26,WSW,246,0.0,0.0,100,0.00,FEW,,0.00,WeatherDisplay:10.37,2013-02-26 06:15:00,
2013-02-26 01:20:00,27.5,27.5,30.26,WSW,246,0.0,0.0,100,0.00,FEW,,0.00,WeatherDisplay:10.37,2013-02-26 06:20:00,
2013-02-26 01:25:00,27.4,27.4,30.27,WSW,246,0.0,0.0,100,0.00,FEW,,0.00,WeatherDisplay:10.37,2013-02-26 06:25:00,
2013-02-26 01:31:00,27.4,27.4,30.27,WSW,246,0.0,0.0,100,0.00,FEW,,0.00,WeatherDisplay:10.37,2013-02-26 06:31:00,
2013-02-26 01:36:00,27.4,27.4,30.27,WSW,246,0.0,0.0,100,0.00,FEW,,0.00,WeatherDisplay:10.37,2013-02-26 06:36:00,
2013-02-26 01:41:00,27.2,27.2,30.27,WSW,246,0.0,0.0,100,0.00,FEW,,0.00,WeatherDisplay:10.37,2013-02-26 06:41:00,
2013-02-26 01:46:00,27.1,27.1,30.26,WSW,246,0.0,0.0,100,0.00,FEW,,0.00,WeatherDisplay:10.37,2013-02-26 06:46:00,
2013-02-26 01:51:00,26.9,26.9,30.27,WSW,246,0.0,0.0,100,0.00,FEW,,0.00,WeatherDisplay:10.37,2013-02-26 06:51:00,
2013-02-26 01:56:00,26.9,26.9,30.27,WSW,246,0.0,0.0,100,0.00,FEW,,0.00,WeatherDisplay:10.37,2013-02-26 06:56:00,
2013-02-26 02:01:00,26.9,26.9,30.26,WSW,246,0.0,0.0,100,0.00,FEW,,0.00,WeatherDisplay:10.37,2013-02-26 07:01:00,
2013-02-26 02:06:00,26.8,26.8,30.26,WSW,246,0.0,0.0,100,0.00,SCT,,0.00,WeatherDisplay:10.37,2013-02-26 07:06:00,
2013-02-26 02:11:00,26.8,26.8,30.26,WSW,246,0.0,0.0,100,0.00,SCT,,0.00,WeatherDisplay:10.37,2013-02-26 07:11:00,
2013-02-26 02:16:00,26.8,26.8,30.26,WSW,246,0.0,0.0,100,0.00,SCT,,0.00,WeatherDisplay:10.37,2013-02-26 07:16:00,
2013-02-26 02:21:00,26.6,26.6,30.26,WSW,246,0.0,0.0,100,0.00,SCT,,0.00,WeatherDisplay:10.37,2013-02-26 07:21:00,
2013-02-26 02:26:00,26.5,26.5,30.26,WSW,246,0.0,0.0,100,0.00,SCT,,0.00,WeatherDisplay:10.37,2013-02-26 07:26:00,
2013-02-26 02:31:00,26.3,26.3,30.26,WSW,246,0.0,0.0,100,0.00,SCT,,0.00,WeatherDisplay:10.37,2013-02-26 07:31:00,
2013-02-26 02:36:00,26.3,26.3,30.26,WSW,246,0.0,0.0,100,0.00,SCT,,0.00,WeatherDisplay:10.37,2013-02-26 07:36:00,
2013-02-26 02:41:00,26.2,26.2,30.26,WSW,246,0.0,0.0,100,0.00,SCT,,0.00,WeatherDisplay:10.37,2013-02-26 07:41:00,
2013-02-26 02:46:00,26.2,26.2,30.26,WSW,246,0.0,0.0,100,0.00,SCT,,0.00,WeatherDisplay:10.37,2013-02-26 07:46:00,
2013-02-26 02:51:00,26.2,26.2,30.26,WSW,246,0.0,0.0,100,0.00,SCT,,0.00,WeatherDisplay:10.37,2013-02-26 07:51:00,
2013-02-26 02:56:00,26.2,26.2,30.26,WSW,246,0.0,0.0,100,0.00,SCT,,0.00,WeatherDisplay:10.37,2013-02-26 07:56:00,
2013-02-26 03:01:00,26.2,26.2,30.26,WSW,246,0.0,0.0,100,0.00,SCT,,0.00,WeatherDisplay:10.37,2013-02-26 08:01:00,
2013-02-26 03:06:00,26.2,26.2,30.26,WSW,246,0.0,0.0,100,0.00,OVC,,0.00,WeatherDisplay:10.37,2013-02-26 08:06:00,
2013-02-26 03:11:00,26.2,26.2,30.26,WSW,246,0.0,0.0,100,0.00,OVC,,0.00,WeatherDisplay:10.37,2013-02-26 08:11:00,
2013-02-26 03:16:00,26.2,26.2,30.27,WSW,246,0.0,0.0,100,0.00,OVC,,0.00,WeatherDisplay:10.37,2013-02-26 08:16:00,
2013-02-26 03:21:00,26.2,26.2,30.27,WSW,246,0.0,0.0,100,0.00,OVC,,0.00,WeatherDisplay:10.37,2013-02-26 08:21:00,
2013-02-26 03:26:00,26.3,26.3,30.27,WSW,246,0.0,0.0,100,0.00,OVC,,0.00,WeatherDisplay:10.37,2013-02-26 08:26:00,
2013-02-26 03:31:00,26.3,26.3,30.27,WSW,246,0.0,0.0,100,0.00,OVC,,0.00,WeatherDisplay:10.37,2013-02-26 08:31:00,
2013-02-26 03:36:00,26.3,26.3,30.27,WSW,246,0.0,0.0,100,0.00,OVC,,0.00,WeatherDisplay:10.37,2013-02-26 08:36:00,
2013-02-26 03:41:00,26.3,26.3,30.27,WSW,246,0.0,0.0,100,0.00,OVC,,0.00,WeatherDisplay:10.37,2013-02-26 08:41:00,
2013-02-26 03:46:00,26.5,26.5,30.28,WSW,246,0.0,0.0,100,0.00,OVC,,0.00,WeatherDisplay:10.37,2013-02-26 08:46:00,
2013-02-26 03:51:00,26.5,26.5,30.28,WSW,246,0.0,0.0,100,0.00,OVC,,0.00,WeatherDisplay:10.37,2013-02-26 08:51:00,
2013-02-26 03:56:00,26.5,26.5,30.28,WSW,246,0.0,0.0,100,0.00,OVC,,0.00,WeatherDisplay:10.37,2013-02-26 08:56:00,
2013-02-26 04:01:00,26.6,26.6,30.29,WSW,246,0.0,0.0,100,0.00,OVC,,0.00,WeatherDisplay:10.37,2013-02-26 09:01:00,
2013-02-26 04:06:00,26.6,26.6,30.29,WSW,246,0.0,0.0,100,0.00,OVC,,0.00,WeatherDisplay:10.37,2013-02-26 09:06:00,
2013-02-26 04:11:00,26.6,26.6,30.30,WSW,246,0.0,0.0,100,0.00,OVC,,0.00,WeatherDisplay:10.37,2013-02-26 09:11:00,
2013-02-26 04:16:00,26.6,26.6,30.30,WSW,246,0.0,0.0,100,0.00,OVC,,0.00,WeatherDisplay:10.37,2013-02-26 09:16:00,
2013-02-26 04:21:00,26.6,26.6,30.30,WSW,246,0.0,0.0,100,0.00,OVC,,0.00,WeatherDisplay:10.37,2013-02-26 09:21:00,
2013-02-26 04:26:00,26.8,26.8,30.30,WSW,246,0.0,0.0,100,0.00,OVC,,0.00,WeatherDisplay:10.37,2013-02-26 09:26:00,
2013-02-26 04:31:00,26.8,26.8,30.30,WSW,246,0.0,0.0,100,0.00,OVC,,0.00,WeatherDisplay:10.37,2013-02-26 09:31:00,
2013-02-26 04:36:00,26.8,26.8,30.31,WSW,246,0.0,0.0,100,0.00,OVC,,0.00,WeatherDisplay:10.37,2013-02-26 09:36:00,
2013-02-26 04:41:00,26.8,26.8,30.31,WSW,246,0.0,0.0,100,0.00,OVC,,0.00,WeatherDisplay:10.37,2013-02-26 09:41:00,
2013-02-26 04:46:00,26.8,26.8,30.31,WSW,246,0.0,0.0,100,0.00,OVC,,0.00,WeatherDisplay:10.37,2013-02-26 09:46:00,
2013-02-26 04:51:00,26.8,26.8,30.31,WSW,246,0.0,0.0,100,0.00,OVC,,0.00,WeatherDisplay:10.37,2013-02-26 09:51:00,
2013-02-26 04:56:00,26.8,26.8,30.31,WSW,246,0.0,0.0,100,0.00,OVC,,0.00,WeatherDisplay:10.37,2013-02-26 09:56:00,
2013-02-26 05:01:00,26.8,26.8,30.31,WSW,246,0.0,0.0,100,0.00,OVC,,0.00,WeatherDisplay:10.37,2013-02-26 10:01:00,
2013-02-26 05:06:00,26.8,26.8,30.31,WSW,246,0.0,0.0,100,0.00,OVC,,0.00,WeatherDisplay:10.37,2013-02-26 10:06:00,
2013-02-26 05:11:00,26.8,26.8,30.31,WSW,246,0.0,0.0,100,0.00,OVC,,0.00,WeatherDisplay:10.37,2013-02-26 10:11:00,
2013-02-26 05:16:00,26.8,26.8,30.31,WSW,246,0.0,0.0,100,0.00,OVC,,0.00,WeatherDisplay:10.37,2013-02-26 10:16:00,
2013-02-26 05:21:00,26.9,26.9,30.31,WSW,246,0.0,0.0,100,0.00,OVC,,0.00,WeatherDisplay:10.37,2013-02-26 10:21:00,
2013-02-26 05:26:00,26.9,26.9,30.31,WSW,246,0.0,0.0,100,0.00,OVC,,0.00,WeatherDisplay:10.37,2013-02-26 10:26:00,
2013-02-26 05:31:00,26.9,26.9,30.31,WSW,246,0.0,0.0,100,0.00,OVC,,0.00,WeatherDisplay:10.37,2013-02-26 10:31:00,
2013-02-26 05:36:00,26.9,26.9,30.31,WSW,246,0.0,0.0,100,0.00,OVC,,0.00,WeatherDisplay:10.37,2013-02-26 10:36:00,
2013-02-26 05:41:00,26.9,26.9,30.31,WSW,246,0.0,0.0,100,0.00,OVC,,0.00,WeatherDisplay:10.37,2013-02-26 10:41:00,
2013-02-26 05:46:00,27.1,27.1,30.31,WSW,246,0.0,0.0,100,0.00,OVC,,0.00,WeatherDisplay:10.37,2013-02-26 10:46:00,
2013-02-26 05:51:00,27.1,27.1,30.31,WSW,246,0.0,0.0,100,0.00,OVC,,0.00,WeatherDisplay:10.37,2013-02-26 10:51:00,
2013-02-26 05:56:00,27.1,27.1,30.31,WSW,246,0.0,0.0,100,0.00,OVC,,0.00,WeatherDisplay:10.37,2013-02-26 10:56:00,
2013-02-26 06:01:00,27.1,27.1,30.32,WSW,246,0.0,0.0,100,0.00,OVC,,0.00,WeatherDisplay:10.37,2013-02-26 11:01:00,
2013-02-26 06:06:00,27.1,27.1,30.32,WSW,246,0.0,0.0,100,0.00,OVC,,0.00,WeatherDisplay:10.37,2013-02-26 11:06:00,
2013-02-26 06:11:00,27.1,27.1,30.32,WSW,246,0.0,0.0,100,0.00,OVC,,0.00,WeatherDisplay:10.37,2013-02-26 11:11:00,
2013-02-26 06:16:00,27.1,27.1,30.32,WSW,246,0.0,0.0,100,0.00,OVC,,0.00,WeatherDisplay:10.37,2013-02-26 11:16:00,
2013-02-26 06:21:00,27.1,27.1,30.33,WSW,246,0.0,0.0,100,0.00,OVC,,0.00,WeatherDisplay:10.37,2013-02-26 11:21:00,
2013-02-26 06:26:00,27.1,27.1,30.33,WSW,246,0.0,0.0,100,0.00,OVC,,0.00,WeatherDisplay:10.37,2013-02-26 11:26:00,
2013-02-26 06:31:00,27.1,27.1,30.33,WSW,246,0.0,0.0,100,0.00,OVC,,0.00,WeatherDisplay:10.37,2013-02-26 11:31:00,
2013-02-26 06:36:00,27.1,27.1,30.34,WSW,246,0.0,0.0,100,0.00,OVC,,0.00,WeatherDisplay:10.37,2013-02-26 11:36:00,
2013-02-26 06:41:00,27.2,27.2,30.34,WSW,246,0.0,0.0,100,0.00,OVC,,0.00,WeatherDisplay:10.37,2013-02-26 11:41:00,
2013-02-26 06:46:00,27.2,27.2,30.34,WSW,246,0.0,0.0,100,0.00,OVC,,0.00,WeatherDisplay:10.37,2013-02-26 11:46:00,
2013-02-26 06:52:00,27.2,27.2,30.34,WSW,246,0.0,0.0,100,0.00,OVC,,0.00,WeatherDisplay:10.37,2013-02-26 11:52:00,
2013-02-26 06:57:00,27.4,27.4,30.34,WSW,246,0.0,0.0,100,0.00,OVC,,0.00,WeatherDisplay:10.37,2013-02-26 11:57:00,
2013-02-26 07:02:00,27.4,27.4,30.34,WSW,246,0.0,0.0,100,0.00,OVC,,0.00,WeatherDisplay:10.37,2013-02-26 12:02:00,
2013-02-26 07:07:00,27.5,27.5,30.34,WSW,246,0.0,0.0,100,0.00,OVC,,0.00,WeatherDisplay:10.37,2013-02-26 12:07:00,
2013-02-26 07:12:00,27.5,27.5,30.34,WSW,246,0.0,0.0,100,0.00,OVC,,0.00,WeatherDisplay:10.37,2013-02-26 12:12:00,
2013-02-26 07:17:00,27.7,27.7,30.34,WSW,246,0.0,0.0,100,0.00,OVC,,0.00,WeatherDisplay:10.37,2013-02-26 12:17:00,
2013-02-26 07:22:00,27.8,27.8,30.35,WSW,246,0.0,0.0,100,0.00,OVC,,0.00,WeatherDisplay:10.37,2013-02-26 12:22:00,
2013-02-26 07:27:00,27.9,27.9,30.34,WSW,246,0.0,0.0,100,0.00,OVC,,0.00,WeatherDisplay:10.37,2013-02-26 12:27:00,
2013-02-26 07:32:00,28.1,28.1,30.35,WSW,246,0.0,0.0,100,0.00,OVC,,0.00,WeatherDisplay:10.37,2013-02-26 12:32:00,
2013-02-26 07:37:00,28.2,28.2,30.35,WSW,246,0.0,0.0,100,0.00,OVC,,0.00,WeatherDisplay:10.37,2013-02-26 12:37:00,
2013-02-26 07:42:00,28.4,28.4,30.35,WSW,246,0.0,0.0,100,0.00,OVC,,0.00,WeatherDisplay:10.37,2013-02-26 12:42:00,
2013-02-26 07:47:00,28.5,28.5,30.34,WSW,246,0.0,0.0,100,0.00,OVC,,0.00,WeatherDisplay:10.37,2013-02-26 12:47:00,
2013-02-26 07:52:00,28.7,28.7,30.34,WSW,246,0.0,0.0,100,0.00,OVC,,0.00,WeatherDisplay:10.37,2013-02-26 12:52:00,
2013-02-26 07:57:00,29.0,29.0,30.34,WSW,246,0.0,0.0,100,0.00,OVC,,0.00,WeatherDisplay:10.37,2013-02-26 12:57:00,
2013-02-26 08:02:00,29.1,29.1,30.34,WSW,246,0.0,0.0,100,0.00,OVC,,0.00,WeatherDisplay:10.37,2013-02-26 13:02:00,
2013-02-26 08:07:00,29.1,29.1,30.35,WSW,246,0.0,0.0,100,0.00,OVC,,0.00,WeatherDisplay:10.37,2013-02-26 13:07:00,
2013-02-26 08:12:00,29.4,29.4,30.35,WSW,246,0.0,0.0,100,0.00,OVC,,0.00,WeatherDisplay:10.37,2013-02-26 13:12:00,
2013-02-26 08:17:00,29.6,29.6,30.35,WSW,246,0.0,0.0,100,0.00,OVC,,0.00,WeatherDisplay:10.37,2013-02-26 13:17:00,
2013-02-26 08:22:00,29.7,29.7,30.35,WSW,246,0.0,0.0,100,0.00,OVC,,0.00,WeatherDisplay:10.37,2013-02-26 13:22:00,
2013-02-26 08:27:00,30.0,30.0,30.35,WSW,246,0.0,0.0,100,0.00,OVC,,0.00,WeatherDisplay:10.37,2013-02-26 13:27:00,
2013-02-26 08:32:00,30.3,30.3,30.36,WSW,246,0.0,0.0,100,0.00,OVC,,0.00,WeatherDisplay:10.37,2013-02-26 13:32:00,
2013-02-26 08:37:00,30.5,30.5,30.35,WSW,246,0.0,0.0,100,0.00,OVC,,0.00,WeatherDisplay:10.37,2013-02-26 13:37:00,
2013-02-26 08:42:00,30.8,30.8,30.35,WSW,246,0.0,0.0,100,0.00,OVC,,0.00,WeatherDisplay:10.37,2013-02-26 13:42:00,
2013-02-26 08:47:00,31.3,31.3,30.35,WSW,246,0.0,0.0,100,0.00,OVC,,0.00,WeatherDisplay:10.37,2013-02-26 13:47:00,
2013-02-26 08:52:00,32.1,32.1,30.36,WSW,246,0.0,0.0,100,0.00,OVC,,0.00,WeatherDisplay:10.37,2013-02-26 13:52:00,
2013-02-26 08:57:00,32.2,32.2,30.36,WSW,246,2.3,2.3,100,0.00,OVC,,0.00,WeatherDisplay:10.37,2013-02-26 13:57:00,
2013-02-26 09:02:00,32.7,32.7,30.36,WSW,246,2.8,2.8,100,0.00,BKN,,0.00,WeatherDisplay:10.37,2013-02-26 14:02:00,
2013-02-26 09:07:00,33.1,33.1,30.36,WSW,246,1.1,1.1,100,0.00,BKN,,0.00,WeatherDisplay:10.37,2013-02-26 14:07:00,
2013-02-26 09:12:00,33.7,33.7,30.36,WSW,246,1.1,1.1,100,0.00,BKN,,0.00,WeatherDisplay:10.37,2013-02-26 14:12:00,
2013-02-26 09:17:00,34.2,34.2,30.36,WSW,246,0.0,0.0,100,0.00,BKN,,0.00,WeatherDisplay:10.37,2013-02-26 14:17:00,
2013-02-26 09:22:00,34.2,33.9,30.36,WSW,246,1.4,0.0,99,0.00,BKN,,0.00,WeatherDisplay:10.37,2013-02-26 14:22:00,
2013-02-26 09:27:00,34.6,33.8,30.35,WSW,246,1.1,1.1,97,0.00,BKN,,0.00,WeatherDisplay:10.37,2013-02-26 14:27:00,
2013-02-26 09:32:00,35.0,33.7,30.36,WSW,246,0.0,0.0,95,0.00,BKN,,0.00,WeatherDisplay:10.37,2013-02-26 14:32:00,
2013-02-26 09:37:00,35.4,33.6,30.36,WSW,246,1.1,1.1,93,0.01,RA,,0.01,WeatherDisplay:10.37,2013-02-26 14:37:00,
2013-02-26 09:42:00,35.9,33.5,30.36,WSW,246,1.1,0.0,91,0.01,RA,,0.01,WeatherDisplay:10.37,2013-02-26 14:42:00,
2013-02-26 09:47:00,36.3,33.1,30.36,WSW,246,0.0,0.0,88,0.01,BKN,,0.01,WeatherDisplay:10.37,2013-02-26 14:47:00,
2013-02-26 09:52:00,36.7,33.2,30.36,WSW,246,1.1,1.1,87,0.01,BKN,,0.01,WeatherDisplay:10.37,2013-02-26 14:52:00,
2013-02-26 09:57:00,37.0,32.9,30.36,WSW,246,1.1,1.1,85,0.02,RA,,0.02,WeatherDisplay:10.37,2013-02-26 14:57:00,
2013-02-26 10:02:00,37.2,32.8,30.36,ESE,109,2.3,2.3,84,0.02,RA,,0.02,WeatherDisplay:10.37,2013-02-26 15:02:00,
2013-02-26 10:07:00,37.2,32.2,30.35,ESE,109,2.3,2.3,82,0.03,RA,,0.03,WeatherDisplay:10.37,2013-02-26 15:07:00,
2013-02-26 10:12:00,37.3,32.0,30.36,East,80,2.3,2.5,81,0.03,RA,,0.03,WeatherDisplay:10.37,2013-02-26 15:12:00,
2013-02-26 10:17:00,37.5,31.9,30.36,East,80,1.1,0.0,80,0.03,CLR,,0.03,WeatherDisplay:10.37,2013-02-26 15:17:00,
2013-02-26 10:22:00,37.7,31.8,30.36,East,80,1.4,1.4,79,0.04,RA,,0.04,WeatherDisplay:10.37,2013-02-26 15:22:00,
2013-02-26 10:27:00,37.6,31.4,30.36,East,80,1.1,0.0,78,0.04,RA,,0.04,WeatherDisplay:10.37,2013-02-26 15:27:00,
2013-02-26 10:32:00,37.9,31.3,30.36,East,80,2.3,2.3,77,0.05,RA,,0.05,WeatherDisplay:10.37,2013-02-26 15:32:00,
2013-02-26 10:37:00,38.3,31.7,30.35,East,80,4.6,4.6,77,0.04,RA,,0.05,WeatherDisplay:10.37,2013-02-26 15:37:00,
2013-02-26 10:42:00,38.5,31.6,30.35,East,95,4.6,4.6,76,0.05,RA,,0.06,WeatherDisplay:10.37,2013-02-26 15:42:00,
2013-02-26 10:47:00,38.5,31.3,30.36,East,95,2.8,2.8,75,0.06,RA,,0.07,WeatherDisplay:10.37,2013-02-26 15:47:00,
2013-02-26 10:52:00,38.5,31.6,30.36,East,95,4.6,4.6,76,0.06,RA,,0.07,WeatherDisplay:10.37,2013-02-26 15:52:00,
2013-02-26 10:57:00,38.5,31.3,30.36,East,95,2.8,2.8,75,0.06,RA,,0.08,WeatherDisplay:10.37,2013-02-26 15:57:00,
2013-02-26 11:02:00,38.3,31.4,30.36,East,95,4.6,4.6,76,0.06,RA,,0.08,WeatherDisplay:10.37,2013-02-26 16:02:00,
2013-02-26 11:07:00,38.2,31.3,30.36,East,95,4.6,4.6,76,0.06,RA,,0.09,WeatherDisplay:10.37,2013-02-26 16:07:00,
2013-02-26 11:12:00,37.9,31.0,30.35,East,92,6.9,6.9,76,0.06,RA,,0.09,WeatherDisplay:10.37,2013-02-26 16:12:00,
2013-02-26 11:17:00,37.9,31.0,30.35,East,92,2.3,2.3,76,0.06,CLR,,0.09,WeatherDisplay:10.37,2013-02-26 16:17:00,
2013-02-26 11:22:00,38.2,31.6,30.35,East,92,1.1,1.1,77,0.05,CLR,,0.09,WeatherDisplay:10.37,2013-02-26 16:22:00,
2013-02-26 11:27:00,38.5,31.6,30.35,East,92,2.3,2.3,76,0.06,RA,,0.10,WeatherDisplay:10.37,2013-02-26 16:27:00,
2013-02-26 11:32:00,38.3,31.1,30.35,East,89,4.6,4.6,75,0.05,RA,,0.10,WeatherDisplay:10.37,2013-02-26 16:32:00,
2013-02-26 11:37:00,38.5,31.3,30.35,East,89,2.3,2.3,75,0.05,CLR,,0.10,WeatherDisplay:10.37,2013-02-26 16:37:00,
2013-02-26 11:42:00,38.6,31.4,30.35,East,89,2.3,2.3,75,0.05,RA,,0.11,WeatherDisplay:10.37,2013-02-26 16:42:00,
2013-02-26 11:47:00,38.6,31.4,30.34,East,89,2.3,2.6,75,0.04,RA,,0.11,WeatherDisplay:10.37,2013-02-26 16:47:00,
2013-02-26 11:52:00,38.6,31.4,30.34,East,89,4.6,4.6,75,0.04,CLR,,0.11,WeatherDisplay:10.37,2013-02-26 16:52:00,
2013-02-26 11:57:00,38.5,30.9,30.34,East,89,4.6,4.6,74,0.04,RA,,0.12,WeatherDisplay:10.37,2013-02-26 16:57:00,
2013-02-26 12:03:00,38.3,30.7,30.34,East,88,4.6,4.6,74,0.04,RA,,0.12,WeatherDisplay:10.37,2013-02-26 17:03:00,
2013-02-26 12:08:00,38.7,31.1,30.33,East,88,5.8,5.8,74,0.03,OVC,,0.12,WeatherDisplay:10.37,2013-02-26 17:08:00,
2013-02-26 12:13:00,38.6,30.7,30.33,East,88,4.6,4.6,73,0.04,RA,,0.13,WeatherDisplay:10.37,2013-02-26 17:13:00,
2013-02-26 12:18:00,38.9,31.0,30.33,East,88,4.6,4.6,73,0.04,RA,,0.13,WeatherDisplay:10.37,2013-02-26 17:18:00,
2013-02-26 12:23:00,39.0,31.1,30.33,East,88,4.6,4.6,73,0.04,OVC,,0.13,WeatherDisplay:10.37,2013-02-26 17:23:00,
2013-02-26 12:28:00,39.7,31.4,30.33,East,88,4.6,4.6,72,0.04,RA,,0.14,WeatherDisplay:10.37,2013-02-26 17:28:00,
2013-02-26 12:33:00,40.2,31.5,30.33,East,100,2.8,2.8,71,0.05,RA,,0.15,WeatherDisplay:10.37,2013-02-26 17:33:00,
2013-02-26 12:38:00,40.3,32.0,30.33,East,100,1.1,1.4,72,0.05,RA,,0.15,WeatherDisplay:10.37,2013-02-26 17:38:00,
2013-02-26 12:43:00,40.7,32.0,30.33,East,100,1.4,1.4,71,0.05,RA,,0.17,WeatherDisplay:10.37,2013-02-26 17:43:00,
2013-02-26 12:48:00,41.0,32.0,30.33,East,100,0.0,0.6,70,0.06,RA,,0.17,WeatherDisplay:10.37,2013-02-26 17:48:00,
2013-02-26 12:53:00,41.2,32.2,30.33,East,100,2.8,2.8,70,0.07,RA,,0.18,WeatherDisplay:10.37,2013-02-26 17:53:00,
2013-02-26 12:58:00,40.7,31.7,30.32,East,100,4.6,0.0,70,0.07,RA,,0.19,WeatherDisplay:10.37,2013-02-26 17:58:00,
2013-02-26 13:03:00,39.5,30.2,30.32,East,100,2.3,2.3,69,0.07,RA,,0.19,WeatherDisplay:10.37,2013-02-26 18:03:00,
2013-02-26 13:08:00,39.5,31.2,30.32,East,100,2.3,2.3,72,0.08,RA,,0.20,WeatherDisplay:10.37,2013-02-26 18:08:00,
2013-02-26 13:13:00,39.7,31.4,30.32,East,100,0.0,0.0,72,0.08,RA,,0.21,WeatherDisplay:10.37,2013-02-26 18:13:00,
2013-02-26 13:18:00,40.0,31.7,30.32,East,100,0.0,0.5,72,0.08,RA,,0.21,WeatherDisplay:10.37,2013-02-26 18:18:00,
2013-02-26 13:23:00,40.5,31.8,30.32,East,100,1.1,1.1,71,0.09,RA,,0.22,WeatherDisplay:10.37,2013-02-26 18:23:00,
2013-02-26 13:28:00,40.7,32.7,30.32,East,100,1.1,1.1,73,0.08,RA,,0.22,WeatherDisplay:10.37,2013-02-26 18:28:00,
2013-02-26 13:33:00,40.7,32.4,30.32,East,100,1.1,1.1,72,0.08,RA,,0.23,WeatherDisplay:10.37,2013-02-26 18:33:00,
2013-02-26 13:38:00,40.9,31.9,30.32,East,100,4.6,4.6,70,0.08,RA,,0.23,WeatherDisplay:10.37,2013-02-26 18:38:00,
2013-02-26 13:43:00,40.7,32.7,30.32,East,100,2.3,0.0,73,0.08,RA,,0.24,WeatherDisplay:10.37,2013-02-26 18:43:00,
2013-02-26 13:48:00,40.5,32.5,30.32,East,100,0.0,0.0,73,0.07,RA,,0.24,WeatherDisplay:10.37,2013-02-26 18:48:00,
2013-02-26 13:53:00,40.3,32.7,30.33,East,100,0.0,0.0,74,0.07,RA,,0.25,WeatherDisplay:10.37,2013-02-26 18:53:00,
2013-02-26 13:58:00,40.0,32.4,30.33,East,100,0.0,0.3,74,0.06,RA,,0.25,WeatherDisplay:10.37,2013-02-26 18:58:00,
2013-02-26 14:03:00,39.7,31.8,30.33,East,100,1.1,0.0,73,0.07,RA,,0.26,WeatherDisplay:10.37,2013-02-26 19:03:00,
2013-02-26 14:08:00,39.5,31.9,30.33,East,100,0.0,0.0,74,0.06,RA,,0.26,WeatherDisplay:10.37,2013-02-26 19:08:00,
2013-02-26 14:13:00,39.2,31.6,30.33,East,100,0.0,0.0,74,0.06,RA,,0.27,WeatherDisplay:10.37,2013-02-26 19:13:00,
2013-02-26 14:18:00,39.0,31.1,30.34,East,100,1.1,0.0,73,0.06,RA,,0.27,WeatherDisplay:10.37,2013-02-26 19:18:00,
2013-02-26 14:23:00,38.7,31.1,30.33,East,100,0.0,0.0,74,0.05,OVC,,0.27,WeatherDisplay:10.37,2013-02-26 19:23:00,
2013-02-26 14:28:00,38.5,31.3,30.33,East,100,0.0,0.0,75,0.06,RA,,0.28,WeatherDisplay:10.37,2013-02-26 19:28:00,
2013-02-26 14:33:00,38.3,32.0,30.34,East,100,0.0,0.0,78,0.05,RA,,0.29,WeatherDisplay:10.37,2013-02-26 19:33:00,
2013-02-26 14:38:00,38.3,31.4,30.34,East,100,0.0,0.0,76,0.06,RA,,0.29,WeatherDisplay:10.37,2013-02-26 19:38:00,
2013-02-26 14:43:00,38.3,31.1,30.34,East,100,0.0,0.0,75,0.05,OVC,,0.29,WeatherDisplay:10.37,2013-02-26 19:43:00,
2013-02-26 14:48:00,38.5,31.3,30.34,East,100,0.0,0.0,75,0.05,OVC,,0.29,WeatherDisplay:10.37,2013-02-26 19:48:00,
2013-02-26 14:53:00,38.3,30.7,30.33,East,100,0.0,0.0,74,0.05,RA,,0.30,WeatherDisplay:10.37,2013-02-26 19:53:00,
2013-02-26 14:58:00,38.3,31.4,30.33,East,100,1.1,1.1,76,0.05,RA,,0.30,WeatherDisplay:10.37,2013-02-26 19:58:00,
2013-02-26 15:03:00,38.5,31.3,30.33,East,100,0.0,0.0,75,0.05,RA,,0.31,WeatherDisplay:10.37,2013-02-26 20:03:00,
2013-02-26 15:08:00,38.3,31.4,30.32,East,100,4.6,4.6,76,0.05,RA,,0.31,WeatherDisplay:10.37,2013-02-26 20:08:00,
2013-02-26 15:13:00,37.9,31.3,30.32,East,100,2.3,2.3,77,0.04,OVC,,0.31,WeatherDisplay:10.37,2013-02-26 20:13:00,
2013-02-26 15:18:00,37.7,31.5,30.32,East,100,0.0,0.0,78,0.04,OVC,,0.31,WeatherDisplay:10.37,2013-02-26 20:18:00,
2013-02-26 15:23:00,37.7,30.8,30.32,East,100,0.0,0.0,76,0.04,OVC,,0.31,WeatherDisplay:10.37,2013-02-26 20:23:00,
2013-02-26 15:28:00,37.5,31.6,30.32,East,100,0.0,0.0,79,0.04,RA,,0.32,WeatherDisplay:10.37,2013-02-26 20:28:00,
2013-02-26 15:33:00,37.5,31.6,30.32,East,100,0.0,0.0,79,0.03,RA,,0.32,WeatherDisplay:10.37,2013-02-26 20:33:00,
2013-02-26 15:38:00,37.5,31.3,30.32,East,100,0.0,0.0,78,0.03,OVC,,0.32,WeatherDisplay:10.37,2013-02-26 20:38:00,
2013-02-26 15:43:00,37.5,31.6,30.32,East,100,0.0,0.0,79,0.03,OVC,,0.32,WeatherDisplay:10.37,2013-02-26 20:43:00,
2013-02-26 15:48:00,37.6,32.0,30.32,East,100,0.0,0.0,80,0.03,OVC,,0.32,WeatherDisplay:10.37,2013-02-26 20:48:00,
2013-02-26 15:53:00,37.5,31.6,30.32,East,100,0.0,0.0,79,0.03,RA,,0.33,WeatherDisplay:10.37,2013-02-26 20:53:00,
2013-02-26 15:58:00,37.5,31.3,30.32,East,100,0.0,0.0,78,0.03,RA,,0.33,WeatherDisplay:10.37,2013-02-26 20:58:00,
2013-02-26 16:03:00,37.5,31.6,30.32,East,100,0.0,0.0,79,0.02,OVC,,0.33,WeatherDisplay:10.37,2013-02-26 21:03:00,
2013-02-26 16:08:00,37.3,31.4,30.32,East,100,0.0,0.0,79,0.02,OVC,,0.33,WeatherDisplay:10.37,2013-02-26 21:08:00,
2013-02-26 16:13:00,37.2,31.3,30.32,East,100,0.0,0.0,79,0.02,OVC,,0.33,WeatherDisplay:10.37,2013-02-26 21:13:00,
2013-02-26 16:18:00,37.0,30.8,30.31,East,100,0.0,0.0,78,0.02,OVC,,0.33,WeatherDisplay:10.37,2013-02-26 21:18:00,
2013-02-26 16:23:00,36.9,31.0,30.31,East,100,0.0,0.0,79,0.02,OVC,,0.33,WeatherDisplay:10.37,2013-02-26 21:23:00,
2013-02-26 16:28:00,36.7,30.8,30.31,East,100,0.0,0.0,79,0.01,OVC,,0.33,WeatherDisplay:10.37,2013-02-26 21:28:00,
2013-02-26 16:33:00,36.6,30.7,30.31,East,100,0.0,0.0,79,0.01,OVC,,0.33,WeatherDisplay:10.37,2013-02-26 21:33:00,
2013-02-26 16:38:00,36.6,31.0,30.32,East,100,0.0,0.0,80,0.02,RA,,0.34,WeatherDisplay:10.37,2013-02-26 21:38:00,
2013-02-26 16:43:00,36.4,31.1,30.32,East,100,0.0,0.0,81,0.02,RA,,0.34,WeatherDisplay:10.37,2013-02-26 21:43:00,
2013-02-26 16:48:00,36.3,31.0,30.32,East,100,0.0,0.0,81,0.02,OVC,,0.34,WeatherDisplay:10.37,2013-02-26 21:48:00,
2013-02-26 16:53:00,36.0,31.3,30.32,East,100,0.0,0.0,83,0.01,OVC,,0.34,WeatherDisplay:10.37,2013-02-26 21:53:00,
2013-02-26 16:58:00,35.7,31.0,30.32,East,100,0.0,0.0,83,0.01,OVC,,0.34,WeatherDisplay:10.37,2013-02-26 21:58:00,
2013-02-26 17:03:00,35.4,31.0,30.32,East,100,0.0,0.0,84,0.01,OVC,,0.34,WeatherDisplay:10.37,2013-02-26 22:03:00,
2013-02-26 17:08:00,35.3,31.2,30.32,East,100,0.0,0.0,85,0.01,OVC,,0.34,WeatherDisplay:10.37,2013-02-26 22:08:00,
2013-02-26 17:13:00,35.2,31.4,30.32,East,100,0.0,0.0,86,0.01,OVC,,0.34,WeatherDisplay:10.37,2013-02-26 22:13:00,
2013-02-26 17:18:00,35.0,31.2,30.32,East,100,0.0,0.0,86,0.01,OVC,,0.34,WeatherDisplay:10.37,2013-02-26 22:18:00,
2013-02-26 17:23:00,34.7,30.7,30.32,East,100,0.0,0.0,85,0.01,OVC,,0.34,WeatherDisplay:10.37,2013-02-26 22:23:00,
2013-02-26 17:29:00,34.6,30.6,30.32,East,100,0.0,0.0,85,0.01,OVC,,0.34,WeatherDisplay:10.37,2013-02-26 22:29:00,
2013-02-26 17:34:00,34.4,30.1,30.32,East,100,0.0,0.0,84,0.01,OVC,,0.34,WeatherDisplay:10.37,2013-02-26 22:34:00,
2013-02-26 17:39:00,34.4,30.6,30.32,East,100,0.0,0.0,86,0.00,OVC,,0.34,WeatherDisplay:10.37,2013-02-26 22:39:00,
2013-02-26 17:44:00,34.3,30.5,30.31,East,100,0.0,0.0,86,0.00,OVC,,0.34,WeatherDisplay:10.37,2013-02-26 22:44:00,
2013-02-26 17:49:00,34.2,30.4,30.31,East,100,0.0,0.0,86,0.01,RA,,0.35,WeatherDisplay:10.37,2013-02-26 22:49:00,
2013-02-26 17:54:00,34.0,30.0,30.31,East,100,0.0,0.0,85,0.01,RA,,0.35,WeatherDisplay:10.37,2013-02-26 22:54:00,
2013-02-26 17:59:00,34.0,29.7,30.31,East,100,1.4,1.4,84,0.01,OVC,,0.35,WeatherDisplay:10.37,2013-02-26 22:59:00,
2013-02-26 18:04:00,34.0,29.4,30.30,East,100,2.3,2.3,83,0.01,OVC,,0.35,WeatherDisplay:10.37,2013-02-26 23:04:00,
2013-02-26 18:09:00,34.0,28.8,30.31,East,100,0.0,0.0,81,0.01,OVC,,0.35,WeatherDisplay:10.37,2013-02-26 23:09:00,
2013-02-26 18:14:00,34.0,28.2,30.31,East,100,0.0,0.0,79,0.01,OVC,,0.35,WeatherDisplay:10.37,2013-02-26 23:14:00,
2013-02-26 18:19:00,34.0,28.8,30.31,East,100,1.1,1.1,81,0.01,OVC,,0.35,WeatherDisplay:10.37,2013-02-26 23:19:00,
2013-02-26 18:24:00,34.0,29.7,30.31,East,100,2.3,2.3,84,0.01,OVC,,0.35,WeatherDisplay:10.37,2013-02-26 23:24:00,
2013-02-26 18:29:00,33.7,30.2,30.31,East,100,0.0,0.0,87,0.01,OVC,,0.35,WeatherDisplay:10.37,2013-02-26 23:29:00,
2013-02-26 18:34:00,33.6,29.9,30.31,East,100,0.0,0.0,86,0.01,OVC,,0.35,WeatherDisplay:10.37,2013-02-26 23:34:00,
2013-02-26 18:39:00,33.4,29.1,30.32,East,100,2.3,2.3,84,0.01,OVC,,0.35,WeatherDisplay:10.37,2013-02-26 23:39:00,
2013-02-26 18:44:00,33.4,29.1,30.32,East,100,0.0,0.0,84,0.01,OVC,,0.35,WeatherDisplay:10.37,2013-02-26 23:44:00,
2013-02-26 18:49:00,33.4,29.4,30.32,East,100,0.0,0.0,85,0.00,OVC,,0.35,WeatherDisplay:10.37,2013-02-26 23:49:00,
2013-02-26 18:54:00,33.3,29.8,30.31,East,100,0.0,0.0,87,0.00,OVC,,0.35,WeatherDisplay:10.37,2013-02-26 23:54:00,
2013-02-26 18:59:00,33.3,30.4,30.31,East,100,0.0,0.0,89,0.00,OVC,,0.35,WeatherDisplay:10.37,2013-02-26 23:59:00,
2013-02-26 19:04:00,33.0,29.8,30.32,East,100,0.0,0.0,88,0.00,OVC,,0.35,WeatherDisplay:10.37,2013-02-27 00:04:00,
2013-02-26 19:09:00,33.0,29.8,30.32,East,100,0.0,0.0,88,0.00,OVC,,0.35,WeatherDisplay:10.37,2013-02-27 00:09:00,
2013-02-26 19:14:00,33.0,30.4,30.32,East,100,0.0,0.0,90,0.00,OVC,,0.35,WeatherDisplay:10.37,2013-02-27 00:14:00,
2013-02-26 19:19:00,33.0,30.4,30.32,East,100,0.0,0.0,90,0.00,OVC,,0.35,WeatherDisplay:10.37,2013-02-27 00:19:00,
2013-02-26 19:24:00,33.0,29.8,30.32,East,100,0.0,0.0,88,0.00,OVC,,0.35,WeatherDisplay:10.37,2013-02-27 00:24:00,
2013-02-26 19:29:00,33.0,30.4,30.32,East,100,0.0,0.0,90,0.00,OVC,,0.35,WeatherDisplay:10.37,2013-02-27 00:29:00,
2013-02-26 19:34:00,33.0,30.7,30.31,East,100,0.0,0.0,91,0.00,OVC,,0.35,WeatherDisplay:10.37,2013-02-27 00:34:00,
2013-02-26 19:39:00,32.8,30.5,30.31,East,100,0.0,0.0,91,0.00,OVC,,0.35,WeatherDisplay:10.37,2013-02-27 00:39:00,
2013-02-26 19:44:00,32.7,30.4,30.31,East,100,0.0,0.0,91,0.00,OVC,,0.35,WeatherDisplay:10.37,2013-02-27 00:44:00,
2013-02-26 19:49:00,32.5,30.7,30.30,East,100,0.0,0.0,93,0.00,OVC,,0.35,WeatherDisplay:10.37,2013-02-27 00:49:00,
2013-02-26 19:54:00,32.4,30.3,30.30,East,100,0.0,0.0,92,0.00,OVC,,0.35,WeatherDisplay:10.37,2013-02-27 00:54:00,
2013-02-26 19:59:00,32.4,30.3,30.31,East,100,0.0,0.0,92,0.00,OVC,,0.35,WeatherDisplay:10.37,2013-02-27 00:59:00,
2013-02-26 20:04:00,32.2,30.7,30.30,East,100,0.0,0.0,94,0.00,OVC,,0.35,WeatherDisplay:10.37,2013-02-27 01:04:00,
2013-02-26 20:09:00,32.1,30.6,30.30,East,100,0.0,0.0,94,0.00,OVC,,0.35,WeatherDisplay:10.37,2013-02-27 01:09:00,
2013-02-26 20:14:00,32.1,30.8,30.31,East,100,0.0,0.0,95,0.00,OVC,,0.35,WeatherDisplay:10.37,2013-02-27 01:14:00,
2013-02-26 20:19:00,31.9,30.6,30.31,East,100,0.0,0.0,95,0.00,OVC,,0.35,WeatherDisplay:10.37,2013-02-27 01:19:00,
2013-02-26 20:24:00,31.8,30.8,30.31,East,100,0.0,0.0,96,0.00,OVC,,0.35,WeatherDisplay:10.37,2013-02-27 01:24:00,
2013-02-26 20:29:00,31.8,30.8,30.31,East,100,0.0,0.0,96,0.00,OVC,,0.35,WeatherDisplay:10.37,2013-02-27 01:29:00,
2013-02-26 20:34:00,31.6,30.8,30.31,East,100,0.0,0.0,97,0.00,OVC,,0.35,WeatherDisplay:10.37,2013-02-27 01:34:00,
2013-02-26 20:39:00,31.6,30.8,30.32,East,100,0.0,0.0,97,0.00,OVC,,0.35,WeatherDisplay:10.37,2013-02-27 01:39:00,
2013-02-26 20:44:00,31.6,30.8,30.32,East,100,0.0,0.0,97,0.00,OVC,,0.35,WeatherDisplay:10.37,2013-02-27 01:44:00,
2013-02-26 20:49:00,31.6,30.8,30.32,East,100,0.0,0.0,97,0.00,OVC,,0.35,WeatherDisplay:10.37,2013-02-27 01:49:00,
2013-02-26 20:54:00,31.6,30.8,30.32,East,100,0.0,0.0,97,0.00,OVC,,0.35,WeatherDisplay:10.37,2013-02-27 01:54:00,
2013-02-26 20:59:00,31.5,30.7,30.31,East,100,0.0,0.0,97,0.00,OVC,,0.35,WeatherDisplay:10.37,2013-02-27 01:59:00,
2013-02-26 21:04:00,31.5,30.7,30.31,East,100,0.0,0.0,97,0.00,CLR,,0.35,WeatherDisplay:10.37,2013-02-27 02:04:00,
2013-02-26 21:10:00,31.3,30.5,30.31,East,100,0.0,0.0,97,0.00,CLR,,0.35,WeatherDisplay:10.37,2013-02-27 02:10:00,
2013-02-26 21:15:00,31.2,30.4,30.31,East,100,0.0,0.0,97,0.00,CLR,,0.35,WeatherDisplay:10.37,2013-02-27 02:15:00,
2013-02-26 21:20:00,30.9,30.4,30.31,East,100,0.0,0.0,98,0.00,CLR,,0.35,WeatherDisplay:10.37,2013-02-27 02:20:00,
2013-02-26 21:25:00,30.6,30.1,30.31,East,100,0.0,0.0,98,0.00,CLR,,0.35,WeatherDisplay:10.37,2013-02-27 02:25:00,
2013-02-26 21:30:00,30.3,29.8,30.31,East,100,0.0,0.0,98,0.00,CLR,,0.35,WeatherDisplay:10.37,2013-02-27 02:30:00,
2013-02-26 21:35:00,30.2,29.7,30.31,East,100,0.0,0.0,98,0.00,CLR,,0.35,WeatherDisplay:10.37,2013-02-27 02:35:00,
2013-02-26 21:40:00,29.9,29.4,30.31,East,100,0.0,0.0,98,0.00,CLR,,0.35,WeatherDisplay:10.37,2013-02-27 02:40:00,
2013-02-26 21:45:00,29.7,29.2,30.30,East,100,0.0,0.0,98,0.00,CLR,,0.35,WeatherDisplay:10.37,2013-02-27 02:45:00,
2013-02-26 21:50:00,29.4,29.2,30.30,East,100,0.0,0.0,99,0.00,CLR,,0.35,WeatherDisplay:10.37,2013-02-27 02:50:00,
2013-02-26 21:56:00,29.1,28.9,30.30,East,100,0.0,0.0,99,0.00,CLR,,0.35,WeatherDisplay:10.37,2013-02-27 02:56:00,
2013-02-26 22:01:00,29.0,29.0,30.30,East,100,0.0,0.0,100,0.00,CLR,,0.35,WeatherDisplay:10.37,2013-02-27 03:01:00,
2013-02-26 22:06:00,28.7,28.7,30.29,East,100,0.0,0.0,100,0.00,CLR,,0.35,WeatherDisplay:10.37,2013-02-27 03:06:00,
2013-02-26 22:11:00,28.7,28.7,30.29,East,100,0.0,0.0,100,0.00,CLR,,0.35,WeatherDisplay:10.37,2013-02-27 03:11:00,
2013-02-26 22:16:00,28.5,28.5,30.29,East,100,0.0,0.0,100,0.00,CLR,,0.35,WeatherDisplay:10.37,2013-02-27 03:16:00,
2013-02-26 22:21:00,28.5,28.5,30.29,East,100,0.0,0.0,100,0.00,CLR,,0.35,WeatherDisplay:10.37,2013-02-27 03:21:00,
2013-02-26 22:26:00,28.4,28.4,30.28,East,100,0.0,0.0,100,0.00,CLR,,0.35,WeatherDisplay:10.37,2013-02-27 03:26:00,
2013-02-26 22:31:00,28.2,28.2,30.28,East,100,0.0,0.0,100,0.00,CLR,,0.35,WeatherDisplay:10.37,2013-02-27 03:31:00,
2013-02-26 22:36:00,27.9,27.9,30.28,East,100,0.0,0.0,100,0.00,CLR,,0.35,WeatherDisplay:10.37,2013-02-27 03:36:00,
2013-02-26 22:41:00,27.8,27.8,30.28,East,100,0.0,0.0,100,0.00,CLR,,0.35,WeatherDisplay:10.37,2013-02-27 03:41:00,
2013-02-26 22:46:00,27.7,27.7,30.28,East,100,0.0,0.0,100,0.00,CLR,,0.35,WeatherDisplay:10.37,2013-02-27 03:46:00,
2013-02-26 22:51:00,27.7,27.7,30.28,East,100,0.0,0.0,100,0.00,CLR,,0.35,WeatherDisplay:10.37,2013-02-27 03:51:00,
2013-02-26 22:56:00,27.5,27.5,30.27,East,100,0.0,0.0,100,0.00,CLR,,0.35,WeatherDisplay:10.37,2013-02-27 03:56:00,
2013-02-26 23:01:00,27.4,27.4,30.28,East,100,0.0,0.0,100,0.00,CLR,,0.35,WeatherDisplay:10.37,2013-02-27 04:01:00,
2013-02-26 23:06:00,27.2,27.2,30.27,East,100,0.0,0.0,100,0.00,CLR,,0.35,WeatherDisplay:10.37,2013-02-27 04:06:00,
2013-02-26 23:11:00,27.2,27.2,30.27,East,100,0.0,0.0,100,0.00,CLR,,0.35,WeatherDisplay:10.37,2013-02-27 04:11:00,
2013-02-26 23:16:00,27.1,27.1,30.27,East,100,0.0,0.0,100,0.00,CLR,,0.35,WeatherDisplay:10.37,2013-02-27 04:16:00,
2013-02-26 23:21:00,26.9,26.9,30.27,East,100,0.0,0.0,100,0.00,CLR,,0.35,WeatherDisplay:10.37,2013-02-27 04:21:00,
2013-02-26 23:26:00,26.9,26.9,30.27,East,100,0.0,0.0,100,0.00,CLR,,0.35,WeatherDisplay:10.37,2013-02-27 04:26:00,
2013-02-26 23:31:00,26.9,26.9,30.27,East,100,0.0,0.0,100,0.00,CLR,,0.35,WeatherDisplay:10.37,2013-02-27 04:31:00,
2013-02-26 23:36:00,27.1,27.1,30.26,East,100,0.0,0.0,100,0.00,CLR,,0.35,WeatherDisplay:10.37,2013-02-27 04:36:00,
2013-02-26 23:41:00,27.1,27.1,30.26,East,100,0.0,0.0,100,0.00,CLR,,0.35,WeatherDisplay:10.37,2013-02-27 04:41:00,
2013-02-26 23:46:00,26.9,26.9,30.26,East,100,0.0,0.0,100,0.00,CLR,,0.35,WeatherDisplay:10.37,2013-02-27 04:46:00,
2013-02-26 23:51:00,26.8,26.8,30.26,East,100,0.0,0.0,100,0.00,CLR,,0.35,WeatherDisplay:10.37,2013-02-27 04:51:00,
2013-02-26 23:56:00,26.6,26.6,30.25,East,100,0.0,0.0,100,0.00,CLR,,0.35,WeatherDisplay:10.37,2013-02-27 04:56:00,